This is the latest recevied weather packets stored in our database for station/object IK1AMC-3. If no packets are shown the sender has not sent any weather packets the latest 10 day(s).
| Time | Temp. | Humidity | Pressure | Rain* | Wind** | Luminosity | Snow |
|---|---|---|---|---|---|---|---|
| 1777714552 | 20.56° C | 48% | 1025.1 hPa | - | - | - | - |
| 1777713350 | 20° C | 46% | 1025.2 hPa | - | - | - | - |
| 1777712149 | 20° C | 50% | 1025.4 hPa | - | - | - | - |
| 1777711194 | 20° C | 51% | 1025.5 hPa | - | - | - | - |
| 1777709993 | 18.89° C | 54% | 1025.4 hPa | - | - | - | - |
| 1777708792 | 18.89° C | 50% | 1025.4 hPa | - | - | - | - |
| 1777707591 | 18.33° C | 54% | 1025.4 hPa | - | - | - | - |
| 1777706389 | 18.33° C | 55% | 1025.3 hPa | - | - | - | - |
| 1777705188 | 17.78° C | 52% | 1025.5 hPa | - | - | - | - |
| 1777703987 | 17.22° C | 54% | 1025.5 hPa | - | - | - | - |
| 1777702785 | 16.11° C | 59% | 1025.5 hPa | - | - | - | - |
| 1777701584 | 15.56° C | 59% | 1025.6 hPa | - | - | - | - |
| 1777700383 | 15° C | 58% | 1025.5 hPa | - | - | - | - |
| 1777699181 | 15° C | 59% | 1025.6 hPa | - | - | - | - |
| 1777697980 | 15° C | 58% | 1025.4 hPa | - | - | - | - |
| 1777696779 | 14.44° C | 58% | 1025.4 hPa | - | - | - | - |
| 1777695578 | 15° C | 57% | 1025.4 hPa | - | - | - | - |
| 1777694376 | 14.44° C | 57% | 1025.1 hPa | - | - | - | - |
| 1777693175 | 14.44° C | 55% | 1025 hPa | - | - | - | - |
| 1777691974 | 14.44° C | 54% | 1025.1 hPa | - | - | - | - |
| 1777690772 | 15° C | 53% | 1025.3 hPa | - | - | - | - |
| 1777689571 | 15° C | 52% | 1025.2 hPa | - | - | - | - |
| 1777688370 | 15° C | 52% | 1025.2 hPa | - | - | - | - |
| 1777671552 | 18.33° C | 39% | 1024.2 hPa | - | - | - | - |
| 1777669149 | 18.33° C | 38% | 1024.1 hPa | - | - | - | - |
* Rain since midnight (hover to see other rain measurements)
** Current wind speed in m/s (hover to see current wind gust speed)